Time;durP1;ratioP1;P1;durP2;ratioP2;P2;SDS_P1;SDS_P2;PMS_P1;PMS_P2;Temp;Humidity;BMP_temperature;BMP_pressure;BME280_temperature;BME280_humidity;BME280_pressure;Samples;Min_cycle;Max_cycle;Signal;HPM_P1;HPM_P2
2021/11/22 00:00:23;;;;;;;5.50;1.92;;;;;;;4.30;94.90;102237.00;5076865;28;20460;-68
2021/11/22 00:02:51;;;;;;;4.97;1.58;;;;;;;4.26;94.87;102231.78;5056036;28;20075;-65
2021/11/22 00:05:17;;;;;;;6.25;1.60;;;;;;;4.25;95.31;102237.88;5055895;28;20021;-67
2021/11/22 00:07:42;;;;;;;6.70;2.30;;;;;;;4.24;95.26;102237.88;5055973;28;20036;-66
2021/11/22 00:10:08;;;;;;;6.47;1.40;;;;;;;4.18;94.76;102235.22;5055990;28;20026;-66
2021/11/22 00:12:33;;;;;;;5.85;1.33;;;;;;;4.15;95.57;102243.09;5076124;28;20040;-66
2021/11/22 00:15:02;;;;;;;9.38;1.70;;;;;;;4.14;96.20;102244.81;5075871;28;20100;-66
2021/11/22 00:17:27;;;;;;;8.52;2.10;;;;;;;4.15;95.88;102249.19;5075726;28;20079;-67
2021/11/22 00:19:52;;;;;;;5.07;1.50;;;;;;;4.13;96.09;102245.72;5075876;28;20025;-67
2021/11/22 00:22:18;;;;;;;6.80;1.67;;;;;;;4.12;96.24;102238.72;5076280;28;20361;-66
2021/11/22 00:24:43;;;;;;;8.52;1.70;;;;;;;4.15;96.35;102250.97;5075428;28;20461;-68
2021/11/22 00:27:09;;;;;;;7.90;1.50;;;;;;;4.18;95.99;102256.19;5075214;28;20051;-67
2021/11/22 00:29:34;;;;;;;4.82;1.55;;;;;;;4.16;96.15;102261.44;5075371;28;20328;-68
2021/11/22 00:32:03;;;;;;;7.60;1.70;;;;;;;4.18;96.26;102266.69;5076337;28;20114;-68
2021/11/22 00:34:28;;;;;;;9.75;1.60;;;;;;;4.19;95.80;102261.44;5073655;28;20043;-66
2021/11/22 00:36:54;;;;;;;6.63;1.60;;;;;;;4.19;95.97;102263.19;5074147;28;20115;-66
2021/11/22 00:39:19;;;;;;;7.40;1.52;;;;;;;4.20;96.69;102273.69;5073930;28;20473;-66
2021/11/22 00:41:44;;;;;;;6.10;1.55;;;;;;;4.20;95.84;102281.56;5073940;28;20107;-66
2021/11/22 00:44:10;;;;;;;5.30;1.42;;;;;;;4.17;96.19;102281.56;5074669;28;20028;-66
2021/11/22 00:46:38;;;;;;;8.30;1.52;;;;;;;4.20;95.89;102284.19;5073749;28;20035;-66
2021/11/22 00:49:03;;;;;;;10.68;1.83;;;;;;;4.20;95.43;102281.56;5074007;28;20032;-66
2021/11/22 00:51:29;;;;;;;6.18;1.50;;;;;;;4.20;96.11;102291.19;5074113;28;20033;-66
2021/11/22 00:53:54;;;;;;;5.45;1.50;;;;;;;4.18;95.95;102293.81;5074535;28;20048;-66
2021/11/22 00:56:21;;;;;;;7.05;1.80;;;;;;;4.18;96.07;102292.91;5073489;28;20035;-67
2021/11/22 00:58:46;;;;;;;7.13;1.58;;;;;;;4.13;95.65;102298.16;5073560;28;20514;-67
2021/11/22 01:01:12;;;;;;;9.02;1.77;;;;;;;4.05;95.98;102310.31;5073892;28;20028;-66
2021/11/22 01:03:37;;;;;;;9.13;1.83;;;;;;;4.05;96.38;102299.84;5074715;28;20021;-66
2021/11/22 01:06:03;;;;;;;6.50;1.50;;;;;;;3.98;96.25;102304.16;5073441;28;20044;-67
2021/11/22 01:08:28;;;;;;;11.65;1.95;;;;;;;3.94;96.52;102311.13;5073369;28;20035;-67
2021/11/22 01:10:54;;;;;;;8.70;2.10;;;;;;;3.94;96.92;102312.88;5073666;28;20377;-67
2021/11/22 01:13:19;;;;;;;4.18;1.63;;;;;;;3.90;96.81;102311.09;5073340;28;20035;-66
2021/11/22 01:15:45;;;;;;;7.97;1.70;;;;;;;3.87;97.24;102311.94;5074326;28;20043;-66
2021/11/22 01:18:10;;;;;;;11.75;2.00;;;;;;;3.80;96.86;102317.13;5073941;28;20111;-67
2021/11/22 01:20:36;;;;;;;7.47;1.67;;;;;;;3.82;97.49;102328.50;5073485;28;20074;-66
2021/11/22 01:23:10;;;;;;;5.63;1.67;;;;;;;3.84;97.81;102324.19;5073305;28;20033;-66
2021/11/22 01:25:38;;;;;;;8.15;1.83;;;;;;;3.85;97.62;102333.75;5074001;28;20035;-67
2021/11/22 01:28:04;;;;;;;8.85;2.28;;;;;;;3.85;97.61;102336.38;5073086;28;20060;-67
2021/11/22 01:30:29;;;;;;;5.40;1.55;;;;;;;3.83;97.55;102340.75;5073607;28;20031;-66
2021/11/22 01:32:55;;;;;;;6.57;1.55;;;;;;;3.77;97.58;102337.22;5035627;28;1082549;-64
2021/11/22 01:35:22;;;;;;;7.43;1.98;;;;;;;3.77;97.70;102347.72;5074282;28;20484;-65
2021/11/22 01:37:48;;;;;;;11.05;2.17;;;;;;;3.80;97.85;102348.56;5074600;28;20054;-66
2021/11/22 01:40:18;;;;;;;3.70;1.65;;;;;;;3.76;97.50;102359.03;5074456;28;20032;-67
2021/11/22 01:42:43;;;;;;;6.88;1.90;;;;;;;3.81;97.90;102351.22;5073920;28;20024;-68
2021/11/22 01:45:12;;;;;;;6.47;2.10;;;;;;;3.88;97.51;102354.78;5055630;28;20155;-68
2021/11/22 01:47:37;;;;;;;4.63;1.75;;;;;;;3.90;97.52;102366.13;5074664;28;20013;-66
2021/11/22 01:50:04;;;;;;;9.77;2.10;;;;;;;3.86;97.18;102365.25;5073741;28;20037;-67
2021/11/22 01:52:30;;;;;;;4.90;1.83;;;;;;;3.82;96.78;102378.31;5074176;28;20025;-67
2021/11/22 01:54:55;;;;;;;4.82;1.70;;;;;;;3.80;97.22;102378.31;5073920;28;20102;-65
2021/11/22 01:57:21;;;;;;;11.23;1.70;;;;;;;3.81;97.54;102372.19;5073935;28;20074;-68
2021/11/22 01:59:46;;;;;;;5.10;1.88;;;;;;;3.82;97.01;102376.53;5073065;28;20458;-68
2021/11/22 02:02:13;;;;;;;11.18;1.98;;;;;;;3.79;96.51;102379.16;5073715;28;20086;-66
2021/11/22 02:04:41;;;;;;;6.28;1.52;;;;;;;3.78;96.49;102385.25;5073479;28;20027;-68
2021/11/22 02:07:07;;;;;;;7.22;2.35;;;;;;;3.76;96.35;102392.25;5073732;28;20373;-67
2021/11/22 02:09:32;;;;;;;5.63;1.33;;;;;;;3.72;96.30;102383.47;5074470;28;20029;-68
2021/11/22 02:11:58;;;;;;;5.57;1.45;;;;;;;3.68;95.79;102391.28;5073712;28;20036;-67
2021/11/22 02:14:24;;;;;;;7.85;2.10;;;;;;;3.65;95.78;102388.66;5072731;28;20039;-67
2021/11/22 02:16:49;;;;;;;5.75;1.63;;;;;;;3.68;95.26;102384.28;5056577;28;20419;-66
2021/11/22 02:19:15;;;;;;;12.63;2.00;;;;;;;3.76;94.40;102387.00;5064153;28;20033;-66
2021/11/22 02:21:40;;;;;;;9.10;1.63;;;;;;;3.75;94.31;102396.59;5053215;28;20025;-66
2021/11/22 02:24:05;;;;;;;8.65;1.70;;;;;;;3.77;93.26;102397.50;5053253;28;20053;-67
2021/11/22 02:26:31;;;;;;;8.80;1.55;;;;;;;3.74;92.71;102404.44;5053289;28;20040;-66
2021/11/22 02:28:56;;;;;;;8.45;2.10;;;;;;;3.71;93.18;102402.66;5061500;28;20026;-65
2021/11/22 02:31:22;;;;;;;9.20;1.80;;;;;;;3.65;93.44;102401.75;5055527;28;20365;-66
2021/11/22 02:33:52;;;;;;;7.07;1.70;;;;;;;3.57;93.30;102399.06;5053054;28;20382;-66
2021/11/22 02:36:17;;;;;;;4.00;1.17;;;;;;;3.52;93.33;102403.38;5053007;28;20099;-65
2021/11/22 02:38:44;;;;;;;6.80;1.92;;;;;;;3.49;93.44;102404.22;5053316;28;20448;-65
2021/11/22 02:41:10;;;;;;;5.78;1.50;;;;;;;3.47;93.17;102405.94;5066467;28;20440;-66
2021/11/22 02:43:39;;;;;;;5.07;1.40;;;;;;;3.46;93.34;102412.03;5072561;28;20117;-67
2021/11/22 02:46:04;;;;;;;3.58;1.35;;;;;;;3.43;93.15;102422.50;5072639;28;20032;-67
2021/11/22 02:48:30;;;;;;;6.57;1.65;;;;;;;3.39;93.11;102428.53;5072992;28;20031;-66
2021/11/22 02:50:56;;;;;;;6.88;1.30;;;;;;;3.28;93.09;102416.22;5081531;28;20062;-67
2021/11/22 02:53:23;;;;;;;6.72;1.50;;;;;;;3.25;93.60;102429.28;5072853;28;20017;-65
2021/11/22 02:55:49;;;;;;;5.35;1.73;;;;;;;3.21;93.86;102422.25;5072767;28;20035;-66
2021/11/22 02:58:14;;;;;;;5.22;1.98;;;;;;;3.19;94.24;102429.19;5072850;28;20028;-65
2021/11/22 03:00:40;;;;;;;6.32;1.35;;;;;;;3.22;93.38;102437.09;5076036;28;20032;-66
2021/11/22 03:03:05;;;;;;;5.15;1.60;;;;;;;3.18;93.06;102434.44;5077779;28;20040;-66
2021/11/22 03:05:30;;;;;;;4.55;1.50;;;;;;;3.14;93.60;102443.13;5072897;28;20441;-65
2021/11/22 03:07:57;;;;;;;5.43;1.25;;;;;;;3.08;93.90;102439.56;5072607;28;20043;-66
2021/11/22 03:10:26;;;;;;;3.55;1.40;;;;;;;3.08;94.14;102450.03;5072923;28;20024;-67
2021/11/22 03:12:53;;;;;;;8.45;1.58;;;;;;;3.03;94.25;102443.88;5082496;28;20093;-67
2021/11/22 03:15:20;;;;;;;10.27;1.90;;;;;;;2.99;94.67;102449.91;5072087;28;20032;-66
2021/11/22 03:17:45;;;;;;;5.18;1.65;;;;;;;3.00;94.25;102454.28;5072706;28;20043;-66
2021/11/22 03:20:15;;;;;;;3.97;1.30;;;;;;;2.99;94.41;102467.34;5072704;28;20025;-67
2021/11/22 03:22:41;;;;;;;8.88;1.63;;;;;;;2.99;94.52;102465.59;5073592;28;20028;-68
2021/11/22 03:25:09;;;;;;;6.57;1.80;;;;;;;3.00;94.61;102469.13;5072163;28;20107;-66
2021/11/22 03:27:35;;;;;;;5.70;1.38;;;;;;;3.05;93.95;102459.56;5072342;28;20028;-67
2021/11/22 03:30:00;;;;;;;6.88;1.65;;;;;;;3.02;93.84;102470.88;5072298;28;20040;-66
2021/11/22 03:32:26;;;;;;;5.82;1.15;;;;;;;2.95;93.58;102469.94;5073218;28;20460;-66
2021/11/22 03:34:52;;;;;;;6.28;1.60;;;;;;;2.91;94.03;102478.59;5054907;28;20037;-65
2021/11/22 03:37:17;;;;;;;5.95;1.50;;;;;;;2.91;94.41;102482.94;5072621;28;20425;-67
2021/11/22 03:39:49;;;;;;;3.80;1.30;;;;;;;2.85;94.21;102480.25;5072648;28;20430;-67
2021/11/22 03:42:16;;;;;;;8.63;1.67;;;;;;;2.78;93.98;102482.75;5072010;28;20036;-66
2021/11/22 03:44:43;;;;;;;5.03;1.70;;;;;;;2.74;94.69;102480.09;5083133;28;20522;-67
2021/11/22 03:47:08;;;;;;;4.60;1.38;;;;;;;2.73;94.38;102496.66;5072145;28;20036;-67
2021/11/22 03:49:34;;;;;;;9.23;1.70;;;;;;;2.73;95.34;102499.28;5072631;28;20350;-65
2021/11/22 03:52:01;;;;;;;6.10;1.45;;;;;;;2.73;94.34;102497.53;5072135;28;20021;-66
2021/11/22 03:54:27;;;;;;;6.13;1.45;;;;;;;2.72;94.78;102489.66;5080236;28;20028;-66
2021/11/22 03:56:52;;;;;;;6.75;1.45;;;;;;;2.67;94.46;102504.41;5074577;28;20031;-66
2021/11/22 03:59:18;;;;;;;7.78;1.50;;;;;;;2.61;95.65;102506.06;5072219;28;20423;-65
2021/11/22 04:01:43;;;;;;;6.40;1.15;;;;;;;2.59;95.10;102505.16;5072036;28;20104;-66
2021/11/22 04:04:09;;;;;;;5.68;1.23;;;;;;;2.57;95.15;102509.50;5072211;28;20028;-65
2021/11/22 04:06:34;;;;;;;3.22;1.30;;;;;;;2.58;94.87;102523.44;5060208;28;20132;-66
2021/11/22 04:09:00;;;;;;;11.20;1.90;;;;;;;2.59;95.46;102518.22;5072277;28;20021;-65
2021/11/22 04:11:26;;;;;;;10.27;1.55;;;;;;;2.64;95.72;102526.16;5072084;28;20437;-67
2021/11/22 04:13:53;;;;;;;8.23;1.55;;;;;;;2.69;95.17;102528.88;5073064;28;20024;-66
2021/11/22 04:16:19;;;;;;;8.13;1.88;;;;;;;2.73;95.13;102533.28;5071420;28;20028;-67
2021/11/22 04:18:44;;;;;;;5.60;1.35;;;;;;;2.72;94.34;102532.38;5071972;28;20024;-67
2021/11/22 04:21:12;;;;;;;3.60;1.10;;;;;;;2.72;94.57;102537.59;5074657;28;20028;-67
2021/11/22 04:23:38;;;;;;;5.10;1.33;;;;;;;2.80;94.17;102548.22;5089976;28;20028;-67
2021/11/22 04:26:04;;;;;;;9.07;1.52;;;;;;;2.78;94.09;102545.56;5096076;28;20039;-67
2021/11/22 04:28:29;;;;;;;6.93;1.45;;;;;;;2.78;93.57;102552.53;5081995;28;20039;-65
2021/11/22 04:30:54;;;;;;;7.30;1.33;;;;;;;2.75;94.63;102547.25;5075383;28;20032;-68
2021/11/22 04:33:20;;;;;;;6.88;1.45;;;;;;;2.69;94.17;102544.56;5081731;28;20040;-67
2021/11/22 04:35:45;;;;;;;5.15;1.90;;;;;;;2.64;94.84;102552.31;5095718;28;20490;-65
2021/11/22 04:38:10;;;;;;;9.27;1.77;;;;;;;2.59;94.44;102551.38;5089584;28;20036;-66
2021/11/22 04:40:36;;;;;;;5.90;1.20;;;;;;;2.56;94.97;102562.66;5075174;28;20119;-66
2021/11/22 04:43:02;;;;;;;6.50;1.48;;;;;;;2.53;95.11;102557.41;5075151;28;20070;-62
2021/11/22 04:45:29;;;;;;;4.72;1.38;;;;;;;2.54;95.43;102556.50;5094022;28;20383;-66
2021/11/22 04:48:00;;;;;;;3.95;1.50;;;;;;;2.48;95.30;102568.63;5076925;28;20031;-66
2021/11/22 04:50:25;;;;;;;6.53;1.83;;;;;;;2.45;95.38;102570.31;5076068;28;20078;-67
2021/11/22 04:52:51;;;;;;;7.30;1.73;;;;;;;2.44;96.41;102570.28;5074903;28;20032;-66
2021/11/22 04:55:19;;;;;;;5.93;1.40;;;;;;;2.49;96.61;102573.88;5087296;28;20032;-66
2021/11/22 04:57:45;;;;;;;7.13;1.42;;;;;;;2.53;95.20;102572.19;5095206;28;20066;-67
2021/11/22 05:00:13;;;;;;;7.38;1.92;;;;;;;2.52;95.01;102588.72;5083386;28;20024;-66
2021/11/22 05:02:39;;;;;;;7.35;1.60;;;;;;;2.49;95.46;102586.94;5073063;28;20442;-66
2021/11/22 05:05:07;;;;;;;5.95;1.40;;;;;;;2.44;95.77;102584.28;5079706;28;20032;-66
2021/11/22 05:07:32;;;;;;;5.18;1.30;;;;;;;2.46;96.04;102589.53;5095103;28;20024;-67
2021/11/22 05:09:57;;;;;;;4.63;1.38;;;;;;;2.40;96.11;102590.28;5090421;28;20373;-67
2021/11/22 05:12:23;;;;;;;9.25;1.67;;;;;;;2.39;96.51;102590.25;5074643;28;20024;-66
2021/11/22 05:14:48;;;;;;;4.85;1.60;;;;;;;2.41;96.19;102591.19;5074789;28;20133;-67
2021/11/22 05:17:15;;;;;;;8.43;1.30;;;;;;;2.50;95.47;102593.06;5074341;28;20377;-65
2021/11/22 05:19:40;;;;;;;12.98;1.40;;;;;;;2.58;95.56;102594.06;5094421;28;20078;-67
2021/11/22 05:22:06;;;;;;;6.63;1.55;;;;;;;2.60;94.52;102598.47;5078007;28;20020;-66
2021/11/22 05:24:31;;;;;;;3.60;1.38;;;;;;;2.64;94.56;102601.16;5074191;28;20058;-68
2021/11/22 05:26:57;;;;;;;7.60;1.60;;;;;;;2.65;94.87;102611.63;5084320;28;20032;-67
2021/11/22 05:29:23;;;;;;;5.82;1.13;;;;;;;2.68;94.72;102609.06;5094800;28;20031;-67
2021/11/22 05:31:49;;;;;;;6.70;1.45;;;;;;;2.62;94.36;102611.56;5084269;28;20086;-68
2021/11/22 05:34:17;;;;;;;5.15;1.35;;;;;;;2.54;94.10;102615.81;5073812;28;20033;-67
2021/11/22 05:36:43;;;;;;;3.30;1.40;;;;;;;2.45;95.41;102617.38;5075260;28;20017;-67
2021/11/22 05:39:09;;;;;;;4.57;1.33;;;;;;;2.39;94.76;102613.78;5073986;28;20039;-66
2021/11/22 05:41:34;;;;;;;9.50;1.58;;;;;;;2.32;95.57;102625.00;5073730;28;20532;-67
2021/11/22 05:43:59;;;;;;;4.60;1.67;;;;;;;2.26;95.92;102629.28;5073725;28;20028;-67
2021/11/22 05:46:25;;;;;;;5.85;1.30;;;;;;;2.21;95.78;102625.69;5073919;28;20044;-67
2021/11/22 05:48:50;;;;;;;8.60;1.67;;;;;;;2.16;96.17;102640.38;5088173;28;20035;-65
2021/11/22 05:51:18;;;;;;;5.07;1.40;;;;;;;2.13;96.16;102633.34;5094489;28;20032;-67
2021/11/22 05:53:47;;;;;;;6.53;1.55;;;;;;;2.08;96.64;102632.38;5075363;28;20024;-68
2021/11/22 05:56:14;;;;;;;6.60;1.65;;;;;;;2.03;96.56;102641.00;5073617;28;20325;-68
2021/11/22 05:58:39;;;;;;;8.98;1.67;;;;;;;1.98;97.36;102643.50;5081276;28;20028;-68
2021/11/22 06:01:05;;;;;;;7.40;1.90;;;;;;;1.94;97.16;102652.16;5094086;28;20035;-67
2021/11/22 06:03:31;;;;;;;10.40;1.92;;;;;;;1.90;96.46;102651.19;5082685;28;20033;-70
2021/11/22 06:05:57;;;;;;;7.53;1.38;;;;;;;1.87;96.59;102652.91;5073531;28;20495;-66
2021/11/22 06:08:24;;;;;;;3.50;1.42;;;;;;;1.86;97.86;102658.97;5073626;28;20021;-66
2021/11/22 06:10:49;;;;;;;6.00;1.50;;;;;;;1.84;97.50;102653.69;5074153;28;20090;-66
2021/11/22 06:13:19;;;;;;;2.92;1.55;;;;;;;1.83;97.66;102654.56;5073071;28;20096;-64
2021/11/22 06:15:46;;;;;;;12.35;2.25;;;;;;;1.81;98.13;102658.84;5071150;28;20024;-66
2021/11/22 06:18:12;;;;;;;7.28;1.42;;;;;;;1.80;98.28;102671.03;5073049;28;20029;-66
2021/11/22 06:20:38;;;;;;;5.63;1.55;;;;;;;1.77;98.80;102673.56;5074090;28;20037;-66
2021/11/22 06:23:04;;;;;;;8.32;2.00;;;;;;;1.76;98.45;102669.19;5073041;28;20028;-67
2021/11/22 06:25:29;;;;;;;8.95;2.15;;;;;;;1.77;98.47;102681.41;5072789;28;20457;-66
2021/11/22 06:27:55;;;;;;;9.40;2.10;;;;;;;1.77;98.93;102683.16;5073276;28;20380;-67
2021/11/22 06:30:21;;;;;;;8.30;1.85;;;;;;;1.78;98.68;102695.38;5074015;28;20021;-68
2021/11/22 06:32:47;;;;;;;6.90;1.90;;;;;;;1.77;98.50;102689.25;5072776;28;20462;-67
2021/11/22 06:35:13;;;;;;;6.15;1.77;;;;;;;1.74;98.86;102683.97;5072476;28;20047;-67
2021/11/22 06:37:38;;;;;;;15.50;1.83;;;;;;;1.72;99.30;102692.63;5072759;28;20376;-66
2021/11/22 06:40:06;;;;;;;8.00;1.50;;;;;;;1.70;99.18;102692.59;5073122;28;20064;-68
2021/11/22 06:42:32;;;;;;;8.60;1.77;;;;;;;1.71;99.49;102699.56;5073371;28;20081;-66
2021/11/22 06:44:57;;;;;;;9.10;2.00;;;;;;;1.69;99.29;102701.28;5072516;28;20111;-66
2021/11/22 06:47:24;;;;;;;9.73;2.15;;;;;;;1.69;98.70;102709.09;5066145;28;20111;-66
2021/11/22 06:49:50;;;;;;;6.95;1.67;;;;;;;1.70;99.08;102718.72;5072891;28;20040;-66
2021/11/22 06:52:18;;;;;;;7.40;1.90;;;;;;;1.69;99.42;102721.28;5072520;28;20024;-66
2021/11/22 06:54:44;;;;;;;8.15;2.33;;;;;;;1.64;98.14;102723.78;5072626;28;20103;-68
2021/11/22 06:57:10;;;;;;;4.88;1.90;;;;;;;1.60;98.71;102735.03;5071900;28;20032;-68
2021/11/22 06:59:35;;;;;;;8.13;2.47;;;;;;;1.59;98.55;102741.97;5073786;28;20036;-68
2021/11/22 07:02:01;;;;;;;9.30;2.25;;;;;;;1.58;98.83;102745.41;5072211;28;20352;-68
2021/11/22 07:04:26;;;;;;;4.82;1.90;;;;;;;1.59;99.30;102757.63;5072060;28;20028;-68
2021/11/22 07:06:52;;;;;;;6.75;2.03;;;;;;;1.59;99.64;102759.38;5071838;28;20027;-68
2021/11/22 07:09:18;;;;;;;7.82;2.10;;;;;;;1.59;98.36;102767.19;5073823;28;20151;-65
2021/11/22 07:11:45;;;;;;;9.55;2.40;;;;;;;1.56;99.28;102768.00;5072329;28;20052;-66
2021/11/22 07:14:11;;;;;;;6.80;2.17;;;;;;;1.56;98.80;102775.84;5054484;28;20013;-68
2021/11/22 07:16:38;;;;;;;6.65;2.45;;;;;;;1.56;99.17;102772.34;5072241;28;20035;-66
2021/11/22 07:19:03;;;;;;;7.85;2.00;;;;;;;1.54;99.10;102774.91;5055396;28;20043;-65
2021/11/22 07:21:29;;;;;;;14.23;2.50;;;;;;;1.55;99.18;102781.00;5072885;28;20032;-68
2021/11/22 07:23:54;;;;;;;7.93;2.50;;;;;;;1.59;98.74;102783.75;5072167;28;20025;-67
2021/11/22 07:26:20;;;;;;;8.73;2.40;;;;;;;1.59;99.65;102793.31;5072133;28;20032;-67
2021/11/22 07:28:45;;;;;;;6.28;1.98;;;;;;;1.57;99.44;102795.91;5071775;28;20037;-66
2021/11/22 07:31:14;;;;;;;8.75;2.28;;;;;;;1.60;99.69;102802.91;5071294;28;20517;-66
2021/11/22 07:33:39;;;;;;;9.80;2.05;;;;;;;1.61;99.12;102807.28;5056596;28;20037;-65
2021/11/22 07:36:05;;;;;;;9.18;2.40;;;;;;;1.62;99.61;102816.88;5072130;28;20035;-65
2021/11/22 07:38:30;;;;;;;9.90;2.25;;;;;;;1.61;99.81;102813.41;5045449;28;20446;-65
2021/11/22 07:40:55;;;;;;;9.38;2.10;;;;;;;1.63;99.39;102814.28;5062374;28;20104;-65
2021/11/22 07:43:21;;;;;;;8.43;2.10;;;;;;;1.67;99.12;102823.09;5070299;28;20017;-66
2021/11/22 07:45:47;;;;;;;6.53;2.13;;;;;;;1.71;99.55;102814.47;5071308;28;20029;-66
2021/11/22 07:48:14;;;;;;;5.97;2.30;;;;;;;1.75;99.29;102823.28;5072268;28;20040;-66
2021/11/22 07:50:40;;;;;;;6.15;2.05;;;;;;;1.75;98.96;102828.50;5072062;28;20063;-65
2021/11/22 07:53:06;;;;;;;6.03;2.30;;;;;;;1.77;99.60;102827.69;5071370;28;20040;-65
2021/11/22 07:55:31;;;;;;;11.73;2.30;;;;;;;1.81;99.00;102826.03;5073444;28;20021;-66
2021/11/22 07:57:57;;;;;;;7.88;2.20;;;;;;;1.82;99.51;102830.44;5076220;28;20051;-66
2021/11/22 08:00:25;;;;;;;8.75;2.63;;;;;;;1.84;99.34;102843.53;5075363;28;20025;-64
2021/11/22 08:02:51;;;;;;;9.55;2.35;;;;;;;1.89;99.12;102839.28;5075898;28;20118;-66
2021/11/22 08:05:17;;;;;;;9.02;2.30;;;;;;;1.89;99.08;102841.91;5075893;28;20448;-66
2021/11/22 08:07:42;;;;;;;10.45;2.88;;;;;;;1.92;99.28;102852.44;5072538;28;20043;-66
2021/11/22 08:10:26;;;;;;;8.05;2.90;;;;;;;1.97;99.36;102845.59;5075818;28;20028;-64
2021/11/22 08:12:53;;;;;;;7.32;2.30;;;;;;;2.04;99.91;102855.31;5064395;28;20507;-66
2021/11/22 08:15:19;;;;;;;9.35;2.90;;;;;;;2.10;99.53;102868.53;5055389;28;20475;-66
2021/11/22 08:17:44;;;;;;;15.02;2.95;;;;;;;2.17;99.12;102863.44;5067200;28;20070;-66
2021/11/22 08:20:11;;;;;;;7.50;2.50;;;;;;;2.26;99.40;102866.25;5075796;28;20078;-65
2021/11/22 08:22:36;;;;;;;10.52;2.60;;;;;;;2.32;99.67;102869.03;5075333;28;20832;-65
2021/11/22 08:25:03;;;;;;;8.50;2.78;;;;;;;2.39;99.73;102863.09;5075666;28;20024;-66
2021/11/22 08:27:29;;;;;;;11.70;2.70;;;;;;;2.50;99.39;102876.38;5076717;28;20028;-67
2021/11/22 08:29:56;;;;;;;11.00;3.42;;;;;;;2.54;99.49;102872.09;5075163;28;20028;-65
2021/11/22 08:32:22;;;;;;;11.07;2.80;;;;;;;2.61;99.04;102869.66;5075452;28;20016;-67
2021/11/22 08:34:48;;;;;;;7.72;2.65;;;;;;;2.66;98.96;102880.22;5075519;28;20028;-65
2021/11/22 08:37:13;;;;;;;8.43;3.00;;;;;;;2.72;98.66;102880.31;5072107;28;20029;-67
2021/11/22 08:39:39;;;;;;;8.50;2.60;;;;;;;2.83;98.67;102877.94;5068585;28;20025;-64
2021/11/22 08:42:05;;;;;;;8.30;2.95;;;;;;;2.97;99.13;102882.56;5073196;28;20036;-65
2021/11/22 08:44:32;;;;;;;7.88;2.55;;;;;;;3.04;98.38;102881.84;5055473;28;20032;-66
2021/11/22 08:46:58;;;;;;;8.77;3.25;;;;;;;3.15;98.82;102885.53;5072647;28;20488;-66
2021/11/22 08:49:24;;;;;;;12.25;4.03;;;;;;;3.24;98.92;102888.31;5075768;28;20047;-65
2021/11/22 08:51:50;;;;;;;5.35;2.60;;;;;;;3.35;98.88;102896.41;5073465;28;20025;-65
2021/11/22 08:54:16;;;;;;;9.13;2.70;;;;;;;3.54;99.52;102895.00;5055070;28;20155;-65
2021/11/22 08:56:42;;;;;;;9.60;2.75;;;;;;;3.64;99.43;102903.88;5055297;28;20473;-64
2021/11/22 08:59:07;;;;;;;10.80;3.05;;;;;;;3.81;99.32;102892.81;5055731;28;20029;-65
2021/11/22 09:01:33;;;;;;;11.25;2.75;;;;;;;3.89;98.45;102896.44;5075708;28;20468;-66
2021/11/22 09:03:58;;;;;;;10.23;2.80;;;;;;;4.01;98.13;102908.84;5073818;28;20028;-65
2021/11/22 09:06:23;;;;;;;14.57;4.18;;;;;;;4.22;99.25;102905.66;5054135;28;20533;-64
2021/11/22 09:08:49;;;;;;;12.82;2.72;;;;;;;4.30;96.77;102921.50;5053942;28;20035;-65
2021/11/22 09:11:15;;;;;;;7.00;2.50;;;;;;;4.51;95.79;102913.97;5086449;28;20119;-65
2021/11/22 09:13:42;;;;;;;12.27;2.78;;;;;;;4.74;93.42;102916.00;5095155;28;20032;-66
2021/11/22 09:16:08;;;;;;;13.32;2.58;;;;;;;5.00;90.54;102918.97;5067007;28;20036;-65
2021/11/22 09:18:35;;;;;;;7.68;2.70;;;;;;;5.29;88.87;102921.03;5073989;28;20093;-65
2021/11/22 09:21:00;;;;;;;7.50;2.70;;;;;;;5.62;86.86;102927.50;5074770;28;20031;-65
2021/11/22 09:23:26;;;;;;;6.55;2.45;;;;;;;6.78;83.41;102930.09;5073863;28;20376;-66
2021/11/22 09:25:52;;;;;;;12.02;2.50;;;;;;;8.25;75.96;102928.59;5067704;28;20070;-65
2021/11/22 09:28:18;;;;;;;10.73;2.95;;;;;;;9.56;71.66;102928.97;5062856;28;20418;-64
2021/11/22 09:30:44;;;;;;;10.40;2.70;;;;;;;10.64;66.88;102931.53;5064832;28;20026;-64
2021/11/22 09:33:10;;;;;;;7.88;2.42;;;;;;;11.55;62.50;102934.72;5074228;28;20115;-64
2021/11/22 09:35:37;;;;;;;5.57;2.28;;;;;;;12.08;59.74;102937.41;5069767;28;20017;-66
2021/11/22 09:38:03;;;;;;;8.40;2.22;;;;;;;12.42;58.04;102943.94;5067749;28;20564;-66
2021/11/22 09:40:28;;;;;;;6.95;2.30;;;;;;;12.83;56.27;102941.38;5071935;28;20107;-68
2021/11/22 09:42:55;;;;;;;10.65;3.20;;;;;;;12.43;55.50;102945.69;5066965;28;20024;-65
2021/11/22 09:45:22;;;;;;;7.55;2.58;;;;;;;12.60;56.74;102950.66;5060419;28;20024;-66
2021/11/22 09:47:47;;;;;;;8.63;2.40;;;;;;;13.32;53.79;102961.56;5072047;28;20021;-66
2021/11/22 09:50:13;;;;;;;9.45;2.80;;;;;;;13.92;51.56;102957.50;5058703;28;20059;-66
2021/11/22 09:52:38;;;;;;;9.23;2.35;;;;;;;14.56;49.64;102953.19;5057195;28;20020;-65
2021/11/22 09:55:04;;;;;;;10.05;2.50;;;;;;;14.48;48.81;102956.06;5070161;28;20387;-66
2021/11/22 09:57:29;;;;;;;7.47;2.28;;;;;;;14.88;48.44;102959.44;5069617;28;20025;-66
2021/11/22 09:59:55;;;;;;;7.10;2.20;;;;;;;15.30;47.20;102971.56;5064491;28;20029;-66
2021/11/22 10:02:39;;;;;;;10.43;2.38;;;;;;;15.75;45.91;102960.31;5067838;28;20029;-66
2021/11/22 10:05:19;;;;;;;8.77;2.30;;;;;;;15.50;44.85;102954.88;5070517;28;20086;-65
2021/11/22 10:07:44;;;;;;;5.97;2.15;;;;;;;15.09;46.16;102955.28;5064192;28;20027;-66
2021/11/22 10:10:13;;;;;;;7.35;2.15;;;;;;;14.68;48.54;102960.00;5064163;28;20119;-65
2021/11/22 10:12:41;;;;;;;6.45;2.35;;;;;;;14.27;48.50;102965.50;5062202;28;20027;-65
2021/11/22 10:15:06;;;;;;;8.38;2.30;;;;;;;14.01;50.75;102956.41;5074083;28;20044;-67
2021/11/22 10:17:34;;;;;;;8.07;2.20;;;;;;;14.42;47.82;102965.13;5072259;28;20401;-67
2021/11/22 10:20:21;;;;;;;6.40;2.00;;;;;;;14.80;48.72;102966.81;5073735;28;20079;-67
2021/11/22 10:23:00;;;;;;;6.05;2.15;;;;;;;15.12;46.99;102970.31;5053422;28;20064;-66
2021/11/22 10:25:32;;;;;;;8.77;2.20;;;;;;;14.72;48.06;102967.88;5053186;28;20029;-66
2021/11/22 10:28:32;;;;;;;6.00;2.10;;;;;;;15.21;46.96;102962.03;5053516;28;20040;-67
2021/11/22 10:31:01;;;;;;;6.63;2.10;;;;;;;15.76;45.39;102956.72;5062013;28;20468;-66
2021/11/22 10:33:32;;;;;;;9.43;2.15;;;;;;;16.29;43.72;102957.66;5072473;28;20040;-67
2021/11/22 10:36:00;;;;;;;9.85;2.72;;;;;;;16.42;42.35;102955.41;5073311;28;20481;-66
2021/11/22 10:38:31;;;;;;;7.32;2.00;;;;;;;15.98;43.67;102972.06;5072303;28;20472;-65
2021/11/22 10:41:04;;;;;;;8.02;2.40;;;;;;;16.22;42.70;102957.84;5073313;28;20025;-68
2021/11/22 10:43:35;;;;;;;7.18;2.25;;;;;;;16.13;43.66;102970.69;5072163;28;20032;-67
2021/11/22 10:46:05;;;;;;;7.05;3.05;;;;;;;16.70;42.40;102960.63;5069384;28;20033;-68
2021/11/22 10:48:31;;;;;;;6.93;2.67;;;;;;;16.67;43.60;102966.09;5071573;28;20024;-67
2021/11/22 10:51:16;;;;;;;7.72;2.30;;;;;;;16.95;41.88;102959.75;5074243;28;20043;-67
2021/11/22 10:53:44;;;;;;;5.18;2.05;;;;;;;17.24;40.24;102965.78;5072282;28;20532;-65
2021/11/22 10:56:14;;;;;;;7.45;2.00;;;;;;;16.75;40.76;102971.16;5064296;28;20028;-66
2021/11/22 10:58:51;;;;;;;6.45;1.70;;;;;;;16.85;40.13;102967.22;5072291;28;20035;-66
2021/11/22 11:01:24;;;;;;;5.05;1.40;;;;;;;17.15;38.17;102964.34;5073720;28;21657;-67
2021/11/22 11:04:10;;;;;;;5.50;2.22;;;;;;;16.86;39.84;102972.50;5093125;28;20027;-67
2021/11/22 11:06:40;;;;;;;6.47;1.48;;;;;;;16.27;41.09;102979.09;4979490;28;20414;-67
2021/11/22 11:09:08;;;;;;;4.65;1.50;;;;;;;16.75;40.44;102966.69;4990832;28;20057;-66
2021/11/22 11:11:34;;;;;;;3.88;1.40;;;;;;;16.61;38.74;102969.00;4974787;28;20035;-66
2021/11/22 11:14:09;;;;;;;4.70;1.08;;;;;;;16.54;39.94;102969.22;4988572;28;20084;-66
2021/11/22 11:16:36;;;;;;;3.47;1.40;;;;;;;16.86;38.46;102977.84;4987911;28;20061;-67
2021/11/22 11:19:09;;;;;;;5.18;1.25;;;;;;;16.80;38.99;102978.09;4971599;28;20077;-67
2021/11/22 11:21:46;;;;;;;5.07;1.60;;;;;;;17.18;38.37;102974.94;4972001;28;20415;-66
2021/11/22 11:24:14;;;;;;;3.85;1.45;;;;;;;17.10;37.36;102977.03;4972204;28;20043;-68
2021/11/22 11:26:42;;;;;;;3.72;1.30;;;;;;;17.10;38.32;102983.25;4971810;28;20103;-67
2021/11/22 11:29:08;;;;;;;4.68;1.13;;;;;;;17.33;37.76;102981.50;4971995;28;20565;-67